sensor_id;sensor_type;location;lat;lon;timestamp;temperature;humidity
18291;DHT22;9271;48.590;8.866;2024-01-30T00:01:52;3.60;99.90
18291;DHT22;9271;48.590;8.866;2024-01-30T00:04:20;3.60;99.90
18291;DHT22;9271;48.590;8.866;2024-01-30T00:06:47;3.50;99.90
18291;DHT22;9271;48.590;8.866;2024-01-30T00:09:14;3.40;99.90
18291;DHT22;9271;48.590;8.866;2024-01-30T00:11:41;3.40;99.90
18291;DHT22;9271;48.590;8.866;2024-01-30T00:14:08;3.50;99.90
18291;DHT22;9271;48.590;8.866;2024-01-30T00:16:34;3.50;99.90
18291;DHT22;9271;48.590;8.866;2024-01-30T00:19:01;3.40;99.90
18291;DHT22;9271;48.590;8.866;2024-01-30T00:21:30;3.40;99.90
18291;DHT22;9271;48.590;8.866;2024-01-30T00:23:56;3.40;99.90
18291;DHT22;9271;48.590;8.866;2024-01-30T00:26:23;3.30;99.90
18291;DHT22;9271;48.590;8.866;2024-01-30T00:28:50;3.40;99.90
18291;DHT22;9271;48.590;8.866;2024-01-30T00:31:16;3.50;99.90
18291;DHT22;9271;48.590;8.866;2024-01-30T00:33:43;3.40;99.90
18291;DHT22;9271;48.590;8.866;2024-01-30T00:36:10;3.50;99.90
18291;DHT22;9271;48.590;8.866;2024-01-30T00:38:38;3.40;99.90
18291;DHT22;9271;48.590;8.866;2024-01-30T00:41:07;3.50;99.90
18291;DHT22;9271;48.590;8.866;2024-01-30T00:43:34;3.50;99.90
18291;DHT22;9271;48.590;8.866;2024-01-30T00:46:01;3.40;99.90
18291;DHT22;9271;48.590;8.866;2024-01-30T00:48:28;3.30;99.90
18291;DHT22;9271;48.590;8.866;2024-01-30T00:50:55;3.30;99.90
18291;DHT22;9271;48.590;8.866;2024-01-30T00:53:22;3.10;99.90
18291;DHT22;9271;48.590;8.866;2024-01-30T00:55:49;3.10;99.90
18291;DHT22;9271;48.590;8.866;2024-01-30T00:58:16;3.20;99.90
18291;DHT22;9271;48.590;8.866;2024-01-30T01:00:44;3.30;99.90
18291;DHT22;9271;48.590;8.866;2024-01-30T01:03:11;3.30;99.90
18291;DHT22;9271;48.590;8.866;2024-01-30T01:05:39;3.30;99.90
18291;DHT22;9271;48.590;8.866;2024-01-30T01:08:06;3.40;99.90
18291;DHT22;9271;48.590;8.866;2024-01-30T01:10:33;3.20;99.90
18291;DHT22;9271;48.590;8.866;2024-01-30T01:13:01;3.30;99.90
18291;DHT22;9271;48.590;8.866;2024-01-30T01:15:27;3.30;99.90
18291;DHT22;9271;48.590;8.866;2024-01-30T01:17:54;3.20;99.90
18291;DHT22;9271;48.590;8.866;2024-01-30T01:20:21;3.30;99.90
18291;DHT22;9271;48.590;8.866;2024-01-30T01:22:47;3.40;99.90
18291;DHT22;9271;48.590;8.866;2024-01-30T01:25:14;3.40;99.90
18291;DHT22;9271;48.590;8.866;2024-01-30T01:27:41;3.20;99.90
18291;DHT22;9271;48.590;8.866;2024-01-30T01:30:11;3.00;99.90
18291;DHT22;9271;48.590;8.866;2024-01-30T01:32:43;3.20;99.90
18291;DHT22;9271;48.590;8.866;2024-01-30T01:35:15;3.20;99.90
18291;DHT22;9271;48.590;8.866;2024-01-30T01:37:42;3.20;99.90
18291;DHT22;9271;48.590;8.866;2024-01-30T01:40:09;3.20;99.90
18291;DHT22;9271;48.590;8.866;2024-01-30T01:42:36;3.20;99.90
18291;DHT22;9271;48.590;8.866;2024-01-30T01:45:03;3.10;99.90
18291;DHT22;9271;48.590;8.866;2024-01-30T01:47:31;3.10;99.90
18291;DHT22;9271;48.590;8.866;2024-01-30T01:49:57;3.20;99.90
18291;DHT22;9271;48.590;8.866;2024-01-30T01:52:25;3.20;99.90
18291;DHT22;9271;48.590;8.866;2024-01-30T01:54:52;3.00;99.90
18291;DHT22;9271;48.590;8.866;2024-01-30T01:57:19;3.10;99.90
18291;DHT22;9271;48.590;8.866;2024-01-30T01:59:46;3.10;99.90
18291;DHT22;9271;48.590;8.866;2024-01-30T02:02:12;3.10;99.90
18291;DHT22;9271;48.590;8.866;2024-01-30T02:04:42;3.10;99.90
18291;DHT22;9271;48.590;8.866;2024-01-30T02:07:09;3.20;99.90
18291;DHT22;9271;48.590;8.866;2024-01-30T02:09:36;3.10;99.90
18291;DHT22;9271;48.590;8.866;2024-01-30T02:12:03;3.10;99.90
18291;DHT22;9271;48.590;8.866;2024-01-30T02:14:30;3.00;99.90
18291;DHT22;9271;48.590;8.866;2024-01-30T02:16:57;3.00;99.90
18291;DHT22;9271;48.590;8.866;2024-01-30T02:19:23;3.00;99.90
18291;DHT22;9271;48.590;8.866;2024-01-30T02:21:52;3.00;99.90
18291;DHT22;9271;48.590;8.866;2024-01-30T02:24:19;3.00;99.90
18291;DHT22;9271;48.590;8.866;2024-01-30T02:26:45;3.00;99.90
18291;DHT22;9271;48.590;8.866;2024-01-30T02:29:12;3.00;99.90
18291;DHT22;9271;48.590;8.866;2024-01-30T02:31:38;3.00;99.90
18291;DHT22;9271;48.590;8.866;2024-01-30T02:34:05;2.90;99.90
18291;DHT22;9271;48.590;8.866;2024-01-30T02:36:32;2.90;99.90
18291;DHT22;9271;48.590;8.866;2024-01-30T02:39:00;3.00;99.90
18291;DHT22;9271;48.590;8.866;2024-01-30T02:41:26;2.90;99.90
18291;DHT22;9271;48.590;8.866;2024-01-30T02:43:53;2.80;99.90
18291;DHT22;9271;48.590;8.866;2024-01-30T02:46:19;2.80;99.90
18291;DHT22;9271;48.590;8.866;2024-01-30T02:48:46;2.80;99.90
18291;DHT22;9271;48.590;8.866;2024-01-30T02:51:13;2.80;99.90
18291;DHT22;9271;48.590;8.866;2024-01-30T02:53:39;2.60;99.90
18291;DHT22;9271;48.590;8.866;2024-01-30T02:56:07;2.70;99.90
18291;DHT22;9271;48.590;8.866;2024-01-30T02:58:35;2.70;99.90
18291;DHT22;9271;48.590;8.866;2024-01-30T03:01:02;2.70;99.90
18291;DHT22;9271;48.590;8.866;2024-01-30T03:03:29;2.60;99.90
18291;DHT22;9271;48.590;8.866;2024-01-30T03:05:55;2.70;99.90
18291;DHT22;9271;48.590;8.866;2024-01-30T03:08:22;2.80;99.90
18291;DHT22;9271;48.590;8.866;2024-01-30T03:10:49;2.80;99.90
18291;DHT22;9271;48.590;8.866;2024-01-30T03:13:16;2.70;99.90
18291;DHT22;9271;48.590;8.866;2024-01-30T03:15:43;2.80;99.90
18291;DHT22;9271;48.590;8.866;2024-01-30T03:18:10;2.70;99.90
18291;DHT22;9271;48.590;8.866;2024-01-30T03:20:37;2.60;99.90
18291;DHT22;9271;48.590;8.866;2024-01-30T03:23:04;2.60;99.90
18291;DHT22;9271;48.590;8.866;2024-01-30T03:25:31;2.70;99.90
18291;DHT22;9271;48.590;8.866;2024-01-30T03:27:57;2.60;99.90
18291;DHT22;9271;48.590;8.866;2024-01-30T03:30:25;2.40;99.90
18291;DHT22;9271;48.590;8.866;2024-01-30T03:32:52;2.40;99.90
18291;DHT22;9271;48.590;8.866;2024-01-30T03:35:19;2.60;99.90
18291;DHT22;9271;48.590;8.866;2024-01-30T03:37:45;2.50;99.90
18291;DHT22;9271;48.590;8.866;2024-01-30T03:40:12;2.50;99.90
18291;DHT22;9271;48.590;8.866;2024-01-30T03:42:39;2.70;99.90
18291;DHT22;9271;48.590;8.866;2024-01-30T03:45:07;2.60;99.90
18291;DHT22;9271;48.590;8.866;2024-01-30T03:47:35;2.70;99.90
18291;DHT22;9271;48.590;8.866;2024-01-30T03:50:01;2.70;99.90
18291;DHT22;9271;48.590;8.866;2024-01-30T03:52:30;2.80;99.90
18291;DHT22;9271;48.590;8.866;2024-01-30T03:54:56;2.80;99.90
18291;DHT22;9271;48.590;8.866;2024-01-30T03:57:23;2.80;99.90
18291;DHT22;9271;48.590;8.866;2024-01-30T03:59:50;2.80;99.90
18291;DHT22;9271;48.590;8.866;2024-01-30T04:02:16;2.70;99.90
18291;DHT22;9271;48.590;8.866;2024-01-30T04:04:44;2.70;99.90
18291;DHT22;9271;48.590;8.866;2024-01-30T04:07:12;2.40;99.90
18291;DHT22;9271;48.590;8.866;2024-01-30T04:09:38;2.50;99.90
18291;DHT22;9271;48.590;8.866;2024-01-30T04:12:05;2.60;99.90
18291;DHT22;9271;48.590;8.866;2024-01-30T04:14:32;2.60;99.90
18291;DHT22;9271;48.590;8.866;2024-01-30T04:16:59;2.50;99.90
18291;DHT22;9271;48.590;8.866;2024-01-30T04:19:25;2.80;99.90
18291;DHT22;9271;48.590;8.866;2024-01-30T04:21:53;2.80;99.90
18291;DHT22;9271;48.590;8.866;2024-01-30T04:24:20;2.80;99.90
18291;DHT22;9271;48.590;8.866;2024-01-30T04:26:47;2.60;99.90
18291;DHT22;9271;48.590;8.866;2024-01-30T04:29:13;2.50;99.90
18291;DHT22;9271;48.590;8.866;2024-01-30T04:31:40;2.60;99.90
18291;DHT22;9271;48.590;8.866;2024-01-30T04:34:06;2.50;99.90
18291;DHT22;9271;48.590;8.866;2024-01-30T04:36:33;2.50;99.90
18291;DHT22;9271;48.590;8.866;2024-01-30T04:39:01;2.60;99.90
18291;DHT22;9271;48.590;8.866;2024-01-30T04:41:29;2.60;99.90
18291;DHT22;9271;48.590;8.866;2024-01-30T04:43:57;2.60;99.90
18291;DHT22;9271;48.590;8.866;2024-01-30T04:46:24;2.60;99.90
18291;DHT22;9271;48.590;8.866;2024-01-30T04:48:50;2.60;99.90
18291;DHT22;9271;48.590;8.866;2024-01-30T04:51:17;2.60;99.90
18291;DHT22;9271;48.590;8.866;2024-01-30T04:53:44;2.60;99.90
18291;DHT22;9271;48.590;8.866;2024-01-30T04:56:12;2.50;99.90
18291;DHT22;9271;48.590;8.866;2024-01-30T04:58:38;2.50;99.90
18291;DHT22;9271;48.590;8.866;2024-01-30T05:01:05;2.30;99.90
18291;DHT22;9271;48.590;8.866;2024-01-30T05:03:33;2.50;99.90
18291;DHT22;9271;48.590;8.866;2024-01-30T05:06:00;2.50;99.90
18291;DHT22;9271;48.590;8.866;2024-01-30T05:08:27;2.60;99.90
18291;DHT22;9271;48.590;8.866;2024-01-30T05:10:53;2.50;99.90
18291;DHT22;9271;48.590;8.866;2024-01-30T05:13:21;2.50;99.90
18291;DHT22;9271;48.590;8.866;2024-01-30T05:15:48;2.40;99.90
18291;DHT22;9271;48.590;8.866;2024-01-30T05:18:14;2.50;99.90
18291;DHT22;9271;48.590;8.866;2024-01-30T05:20:41;2.40;99.90
18291;DHT22;9271;48.590;8.866;2024-01-30T05:23:08;2.50;99.90
18291;DHT22;9271;48.590;8.866;2024-01-30T05:25:34;2.40;99.90
18291;DHT22;9271;48.590;8.866;2024-01-30T05:28:01;2.20;99.90
18291;DHT22;9271;48.590;8.866;2024-01-30T05:30:29;2.00;99.90
18291;DHT22;9271;48.590;8.866;2024-01-30T05:32:56;1.90;99.90
18291;DHT22;9271;48.590;8.866;2024-01-30T05:35:22;2.00;99.90
18291;DHT22;9271;48.590;8.866;2024-01-30T05:37:49;2.00;99.90
18291;DHT22;9271;48.590;8.866;2024-01-30T05:40:16;2.20;99.90
18291;DHT22;9271;48.590;8.866;2024-01-30T05:42:43;2.10;99.90
18291;DHT22;9271;48.590;8.866;2024-01-30T05:45:09;2.10;99.90
18291;DHT22;9271;48.590;8.866;2024-01-30T05:47:39;2.20;99.90
18291;DHT22;9271;48.590;8.866;2024-01-30T05:50:06;2.10;99.90
18291;DHT22;9271;48.590;8.866;2024-01-30T05:52:33;2.10;99.90
18291;DHT22;9271;48.590;8.866;2024-01-30T05:55:00;2.10;99.90
18291;DHT22;9271;48.590;8.866;2024-01-30T05:57:27;2.10;99.90
18291;DHT22;9271;48.590;8.866;2024-01-30T05:59:54;2.10;99.90
18291;DHT22;9271;48.590;8.866;2024-01-30T06:02:21;2.10;99.90
18291;DHT22;9271;48.590;8.866;2024-01-30T06:04:48;2.20;99.90
18291;DHT22;9271;48.590;8.866;2024-01-30T06:07:15;2.20;99.90
18291;DHT22;9271;48.590;8.866;2024-01-30T06:09:42;2.20;99.90
18291;DHT22;9271;48.590;8.866;2024-01-30T06:12:09;2.30;99.90
18291;DHT22;9271;48.590;8.866;2024-01-30T06:14:37;2.20;99.90
18291;DHT22;9271;48.590;8.866;2024-01-30T06:17:03;2.30;99.90
18291;DHT22;9271;48.590;8.866;2024-01-30T06:19:31;2.40;99.90
18291;DHT22;9271;48.590;8.866;2024-01-30T06:21:59;2.50;99.90
18291;DHT22;9271;48.590;8.866;2024-01-30T06:24:25;2.50;99.90
18291;DHT22;9271;48.590;8.866;2024-01-30T06:26:53;2.40;99.90
18291;DHT22;9271;48.590;8.866;2024-01-30T06:29:19;2.40;99.90
18291;DHT22;9271;48.590;8.866;2024-01-30T06:31:46;2.40;99.90
18291;DHT22;9271;48.590;8.866;2024-01-30T06:34:13;2.40;99.90
18291;DHT22;9271;48.590;8.866;2024-01-30T06:36:39;2.40;99.90
18291;DHT22;9271;48.590;8.866;2024-01-30T06:39:07;2.30;99.90
18291;DHT22;9271;48.590;8.866;2024-01-30T06:41:34;2.40;99.90
18291;DHT22;9271;48.590;8.866;2024-01-30T06:44:02;2.50;99.90
18291;DHT22;9271;48.590;8.866;2024-01-30T06:46:31;2.30;99.90
18291;DHT22;9271;48.590;8.866;2024-01-30T06:48:58;2.30;99.90
18291;DHT22;9271;48.590;8.866;2024-01-30T06:51:25;2.30;99.90
18291;DHT22;9271;48.590;8.866;2024-01-30T06:53:52;2.20;99.90
18291;DHT22;9271;48.590;8.866;2024-01-30T06:56:20;2.20;99.90
18291;DHT22;9271;48.590;8.866;2024-01-30T06:58:47;2.30;99.90
18291;DHT22;9271;48.590;8.866;2024-01-30T07:01:14;2.20;99.90
18291;DHT22;9271;48.590;8.866;2024-01-30T07:03:41;2.50;99.90
18291;DHT22;9271;48.590;8.866;2024-01-30T07:06:08;2.60;99.90
18291;DHT22;9271;48.590;8.866;2024-01-30T07:08:36;2.70;99.90
18291;DHT22;9271;48.590;8.866;2024-01-30T07:11:04;2.80;99.90
18291;DHT22;9271;48.590;8.866;2024-01-30T07:13:32;2.70;99.90
18291;DHT22;9271;48.590;8.866;2024-01-30T07:15:59;2.90;99.90
18291;DHT22;9271;48.590;8.866;2024-01-30T07:18:26;3.00;99.90
18291;DHT22;9271;48.590;8.866;2024-01-30T07:20:52;3.30;99.90
18291;DHT22;9271;48.590;8.866;2024-01-30T07:23:19;3.30;99.90
18291;DHT22;9271;48.590;8.866;2024-01-30T07:25:46;3.30;99.90
18291;DHT22;9271;48.590;8.866;2024-01-30T07:28:14;3.30;99.90
18291;DHT22;9271;48.590;8.866;2024-01-30T07:30:43;3.40;99.90
18291;DHT22;9271;48.590;8.866;2024-01-30T07:33:10;3.50;99.90
18291;DHT22;9271;48.590;8.866;2024-01-30T07:35:37;3.20;99.90
18291;DHT22;9271;48.590;8.866;2024-01-30T07:38:03;3.10;99.90
18291;DHT22;9271;48.590;8.866;2024-01-30T07:40:30;3.20;99.90
18291;DHT22;9271;48.590;8.866;2024-01-30T07:42:58;3.60;99.90
18291;DHT22;9271;48.590;8.866;2024-01-30T07:45:25;4.00;99.90
18291;DHT22;9271;48.590;8.866;2024-01-30T07:47:54;4.30;99.90
18291;DHT22;9271;48.590;8.866;2024-01-30T07:50:21;4.50;99.90
18291;DHT22;9271;48.590;8.866;2024-01-30T07:52:47;4.70;99.90
18291;DHT22;9271;48.590;8.866;2024-01-30T07:55:16;5.00;99.90
18291;DHT22;9271;48.590;8.866;2024-01-30T07:57:44;5.30;99.90
18291;DHT22;9271;48.590;8.866;2024-01-30T08:00:12;5.50;99.90
18291;DHT22;9271;48.590;8.866;2024-01-30T08:02:39;5.60;99.90
18291;DHT22;9271;48.590;8.866;2024-01-30T08:05:07;5.80;99.90
18291;DHT22;9271;48.590;8.866;2024-01-30T08:07:36;6.20;99.90
18291;DHT22;9271;48.590;8.866;2024-01-30T08:10:03;6.60;99.90
18291;DHT22;9271;48.590;8.866;2024-01-30T08:12:30;6.40;99.90
18291;DHT22;9271;48.590;8.866;2024-01-30T08:14:56;5.80;99.90
18291;DHT22;9271;48.590;8.866;2024-01-30T08:17:23;5.90;99.90
18291;DHT22;9271;48.590;8.866;2024-01-30T08:19:49;6.00;99.90
18291;DHT22;9271;48.590;8.866;2024-01-30T08:22:17;6.00;99.90
18291;DHT22;9271;48.590;8.866;2024-01-30T08:24:44;6.30;99.90
18291;DHT22;9271;48.590;8.866;2024-01-30T08:27:11;6.90;99.90
18291;DHT22;9271;48.590;8.866;2024-01-30T08:29:38;7.50;99.90
18291;DHT22;9271;48.590;8.866;2024-01-30T08:32:05;7.90;99.90
18291;DHT22;9271;48.590;8.866;2024-01-30T08:34:32;8.20;99.90
18291;DHT22;9271;48.590;8.866;2024-01-30T08:36:59;8.30;99.90
18291;DHT22;9271;48.590;8.866;2024-01-30T08:39:27;8.10;99.30
18291;DHT22;9271;48.590;8.866;2024-01-30T08:41:53;8.30;99.90
18291;DHT22;9271;48.590;8.866;2024-01-30T08:44:20;8.20;99.90
18291;DHT22;9271;48.590;8.866;2024-01-30T08:46:47;8.60;99.60
18291;DHT22;9271;48.590;8.866;2024-01-30T08:49:16;8.90;99.10
18291;DHT22;9271;48.590;8.866;2024-01-30T08:51:42;9.60;97.70
18291;DHT22;9271;48.590;8.866;2024-01-30T08:54:09;10.20;96.00
18291;DHT22;9271;48.590;8.866;2024-01-30T08:56:37;11.10;94.70
18291;DHT22;9271;48.590;8.866;2024-01-30T08:59:04;12.50;92.80
18291;DHT22;9271;48.590;8.866;2024-01-30T09:01:30;13.90;90.40
18291;DHT22;9271;48.590;8.866;2024-01-30T09:03:57;15.10;86.50
18291;DHT22;9271;48.590;8.866;2024-01-30T09:06:24;15.80;80.30
18291;DHT22;9271;48.590;8.866;2024-01-30T09:08:52;15.90;76.50
18291;DHT22;9271;48.590;8.866;2024-01-30T09:11:18;15.90;75.10
18291;DHT22;9271;48.590;8.866;2024-01-30T09:13:46;15.90;73.60
18291;DHT22;9271;48.590;8.866;2024-01-30T09:16:13;15.40;74.50
18291;DHT22;9271;48.590;8.866;2024-01-30T09:18:41;15.00;75.80
18291;DHT22;9271;48.590;8.866;2024-01-30T09:21:08;15.10;76.10
18291;DHT22;9271;48.590;8.866;2024-01-30T09:23:34;15.00;77.10
18291;DHT22;9271;48.590;8.866;2024-01-30T09:26:01;14.90;77.80
18291;DHT22;9271;48.590;8.866;2024-01-30T09:28:28;13.60;79.00
18291;DHT22;9271;48.590;8.866;2024-01-30T09:30:56;12.20;83.50
18291;DHT22;9271;48.590;8.866;2024-01-30T09:33:23;10.70;88.40
18291;DHT22;9271;48.590;8.866;2024-01-30T09:35:49;9.80;92.30
18291;DHT22;9271;48.590;8.866;2024-01-30T09:38:16;9.80;93.20
18291;DHT22;9271;48.590;8.866;2024-01-30T09:40:43;10.60;92.00
18291;DHT22;9271;48.590;8.866;2024-01-30T09:43:16;10.80;91.70
18291;DHT22;9271;48.590;8.866;2024-01-30T09:45:46;10.60;92.30
18291;DHT22;9271;48.590;8.866;2024-01-30T09:48:16;11.10;92.00
18291;DHT22;9271;48.590;8.866;2024-01-30T09:50:43;11.10;91.20
18291;DHT22;9271;48.590;8.866;2024-01-30T09:53:09;10.50;92.20
18291;DHT22;9271;48.590;8.866;2024-01-30T09:55:37;10.20;92.50
18291;DHT22;9271;48.590;8.866;2024-01-30T09:58:05;9.90;94.00
18291;DHT22;9271;48.590;8.866;2024-01-30T10:00:32;9.40;94.50
18291;DHT22;9271;48.590;8.866;2024-01-30T10:02:58;8.90;95.80
18291;DHT22;9271;48.590;8.866;2024-01-30T10:05:27;9.00;96.60
18291;DHT22;9271;48.590;8.866;2024-01-30T10:07:54;9.50;96.00
18291;DHT22;9271;48.590;8.866;2024-01-30T10:10:22;9.80;95.40
18291;DHT22;9271;48.590;8.866;2024-01-30T10:12:49;10.10;94.40
18291;DHT22;9271;48.590;8.866;2024-01-30T10:15:17;10.60;94.30
18291;DHT22;9271;48.590;8.866;2024-01-30T10:17:44;11.50;93.10
18291;DHT22;9271;48.590;8.866;2024-01-30T10:20:11;11.90;91.70
18291;DHT22;9271;48.590;8.866;2024-01-30T10:22:40;12.00;91.10
18291;DHT22;9271;48.590;8.866;2024-01-30T10:25:08;12.50;90.70
18291;DHT22;9271;48.590;8.866;2024-01-30T10:27:36;12.80;90.20
18291;DHT22;9271;48.590;8.866;2024-01-30T10:30:03;13.40;89.20
18291;DHT22;9271;48.590;8.866;2024-01-30T10:32:30;14.10;85.40
18291;DHT22;9271;48.590;8.866;2024-01-30T10:34:56;14.30;84.60
18291;DHT22;9271;48.590;8.866;2024-01-30T10:37:25;15.00;82.50
18291;DHT22;9271;48.590;8.866;2024-01-30T10:39:54;15.20;82.30
18291;DHT22;9271;48.590;8.866;2024-01-30T10:42:26;15.20;82.00
18291;DHT22;9271;48.590;8.866;2024-01-30T10:44:57;15.50;81.80
18291;DHT22;9271;48.590;8.866;2024-01-30T10:47:27;15.90;78.60
18291;DHT22;9271;48.590;8.866;2024-01-30T10:49:54;16.50;76.00
18291;DHT22;9271;48.590;8.866;2024-01-30T10:52:23;17.30;75.80
18291;DHT22;9271;48.590;8.866;2024-01-30T10:54:51;18.20;71.90
18291;DHT22;9271;48.590;8.866;2024-01-30T10:57:19;19.00;67.70
18291;DHT22;9271;48.590;8.866;2024-01-30T10:59:48;18.60;66.20
18291;DHT22;9271;48.590;8.866;2024-01-30T11:02:15;18.20;66.60
18291;DHT22;9271;48.590;8.866;2024-01-30T11:04:42;18.20;66.50
18291;DHT22;9271;48.590;8.866;2024-01-30T11:07:15;17.80;67.70
18291;DHT22;9271;48.590;8.866;2024-01-30T11:09:48;17.80;67.60
18291;DHT22;9271;48.590;8.866;2024-01-30T11:12:16;17.70;67.80
18291;DHT22;9271;48.590;8.866;2024-01-30T11:14:44;18.00;67.70
18291;DHT22;9271;48.590;8.866;2024-01-30T11:17:10;17.80;68.30
18291;DHT22;9271;48.590;8.866;2024-01-30T11:19:38;17.20;68.70
18291;DHT22;9271;48.590;8.866;2024-01-30T11:22:06;17.00;70.50
18291;DHT22;9271;48.590;8.866;2024-01-30T11:24:39;17.10;71.20
18291;DHT22;9271;48.590;8.866;2024-01-30T11:27:08;17.50;70.70
18291;DHT22;9271;48.590;8.866;2024-01-30T11:29:35;17.60;70.20
18291;DHT22;9271;48.590;8.866;2024-01-30T11:32:05;17.50;70.30
18291;DHT22;9271;48.590;8.866;2024-01-30T11:34:32;17.10;70.90
18291;DHT22;9271;48.590;8.866;2024-01-30T11:37:03;16.80;73.50
18291;DHT22;9271;48.590;8.866;2024-01-30T11:39:30;16.50;73.60
18291;DHT22;9271;48.590;8.866;2024-01-30T11:41:57;16.20;75.00
18291;DHT22;9271;48.590;8.866;2024-01-30T11:44:25;16.20;75.60
18291;DHT22;9271;48.590;8.866;2024-01-30T11:46:52;16.40;74.60
18291;DHT22;9271;48.590;8.866;2024-01-30T11:49:20;16.40;75.10
18291;DHT22;9271;48.590;8.866;2024-01-30T11:51:47;16.60;73.40
18291;DHT22;9271;48.590;8.866;2024-01-30T11:54:15;16.70;74.20
18291;DHT22;9271;48.590;8.866;2024-01-30T11:56:42;16.70;73.90
18291;DHT22;9271;48.590;8.866;2024-01-30T11:59:09;16.40;74.70
18291;DHT22;9271;48.590;8.866;2024-01-30T12:01:36;16.90;73.40
18291;DHT22;9271;48.590;8.866;2024-01-30T12:04:03;17.20;71.80
18291;DHT22;9271;48.590;8.866;2024-01-30T12:06:35;17.80;70.80
18291;DHT22;9271;48.590;8.866;2024-01-30T12:09:03;17.90;70.20
18291;DHT22;9271;48.590;8.866;2024-01-30T12:11:30;18.50;69.30
18291;DHT22;9271;48.590;8.866;2024-01-30T12:13:57;19.20;66.80
18291;DHT22;9271;48.590;8.866;2024-01-30T12:16:24;19.40;65.80
18291;DHT22;9271;48.590;8.866;2024-01-30T12:18:59;19.70;63.80
18291;DHT22;9271;48.590;8.866;2024-01-30T12:21:26;19.30;65.10
18291;DHT22;9271;48.590;8.866;2024-01-30T12:23:54;20.20;63.60
18291;DHT22;9271;48.590;8.866;2024-01-30T12:26:21;21.20;61.60
18291;DHT22;9271;48.590;8.866;2024-01-30T12:28:48;22.20;58.70
18291;DHT22;9271;48.590;8.866;2024-01-30T12:31:15;23.20;56.20
18291;DHT22;9271;48.590;8.866;2024-01-30T12:33:42;23.80;53.40
18291;DHT22;9271;48.590;8.866;2024-01-30T12:36:08;24.00;52.60
18291;DHT22;9271;48.590;8.866;2024-01-30T12:38:35;23.70;53.30
18291;DHT22;9271;48.590;8.866;2024-01-30T12:41:04;24.20;51.60
18291;DHT22;9271;48.590;8.866;2024-01-30T12:43:30;24.70;49.60
18291;DHT22;9271;48.590;8.866;2024-01-30T12:45:58;24.70;49.20
18291;DHT22;9271;48.590;8.866;2024-01-30T12:48:26;25.30;48.10
18291;DHT22;9271;48.590;8.866;2024-01-30T12:50:54;25.60;48.30
18291;DHT22;9271;48.590;8.866;2024-01-30T12:53:21;26.80;45.50
18291;DHT22;9271;48.590;8.866;2024-01-30T12:55:47;27.60;43.50
18291;DHT22;9271;48.590;8.866;2024-01-30T12:58:16;28.60;40.70
18291;DHT22;9271;48.590;8.866;2024-01-30T13:00:42;29.40;38.10
18291;DHT22;9271;48.590;8.866;2024-01-30T13:03:10;30.00;35.90
18291;DHT22;9271;48.590;8.866;2024-01-30T13:05:37;30.20;36.30
18291;DHT22;9271;48.590;8.866;2024-01-30T13:08:04;28.70;35.90
18291;DHT22;9271;48.590;8.866;2024-01-30T13:10:31;27.90;37.00
18291;DHT22;9271;48.590;8.866;2024-01-30T13:12:57;27.70;37.70
18291;DHT22;9271;48.590;8.866;2024-01-30T13:15:25;27.30;37.90
18291;DHT22;9271;48.590;8.866;2024-01-30T13:17:52;27.80;37.50
18291;DHT22;9271;48.590;8.866;2024-01-30T13:20:19;29.00;36.30
18291;DHT22;9271;48.590;8.866;2024-01-30T13:22:47;28.90;35.50
18291;DHT22;9271;48.590;8.866;2024-01-30T13:25:14;28.20;36.30
18291;DHT22;9271;48.590;8.866;2024-01-30T13:27:41;27.60;38.10
18291;DHT22;9271;48.590;8.866;2024-01-30T13:30:08;25.90;39.00
18291;DHT22;9271;48.590;8.866;2024-01-30T13:32:37;24.30;42.90
18291;DHT22;9271;48.590;8.866;2024-01-30T13:35:04;23.10;43.40
18291;DHT22;9271;48.590;8.866;2024-01-30T13:37:31;22.00;45.20
18291;DHT22;9271;48.590;8.866;2024-01-30T13:39:57;21.80;46.20
18291;DHT22;9271;48.590;8.866;2024-01-30T13:42:24;21.50;47.30
18291;DHT22;9271;48.590;8.866;2024-01-30T13:44:51;21.00;48.40
18291;DHT22;9271;48.590;8.866;2024-01-30T13:47:17;20.60;49.40
18291;DHT22;9271;48.590;8.866;2024-01-30T13:49:48;20.50;49.70
18291;DHT22;9271;48.590;8.866;2024-01-30T13:52:14;20.90;50.40
18291;DHT22;9271;48.590;8.866;2024-01-30T13:54:41;21.90;49.60
18291;DHT22;9271;48.590;8.866;2024-01-30T13:57:08;22.90;48.60
18291;DHT22;9271;48.590;8.866;2024-01-30T13:59:35;23.30;47.70
18291;DHT22;9271;48.590;8.866;2024-01-30T14:02:02;23.40;45.40
18291;DHT22;9271;48.590;8.866;2024-01-30T14:04:28;22.80;45.60
18291;DHT22;9271;48.590;8.866;2024-01-30T14:06:56;22.60;46.80
18291;DHT22;9271;48.590;8.866;2024-01-30T14:09:23;22.20;47.50
18291;DHT22;9271;48.590;8.866;2024-01-30T14:11:50;22.30;48.00
18291;DHT22;9271;48.590;8.866;2024-01-30T14:14:17;22.40;48.00
18291;DHT22;9271;48.590;8.866;2024-01-30T14:16:43;22.30;47.80
18291;DHT22;9271;48.590;8.866;2024-01-30T14:19:10;21.80;48.60
18291;DHT22;9271;48.590;8.866;2024-01-30T14:21:37;21.70;49.00
18291;DHT22;9271;48.590;8.866;2024-01-30T14:24:05;22.00;48.20
18291;DHT22;9271;48.590;8.866;2024-01-30T14:26:32;22.00;48.10
18291;DHT22;9271;48.590;8.866;2024-01-30T14:28:58;22.80;48.10
18291;DHT22;9271;48.590;8.866;2024-01-30T14:31:25;23.50;47.10
18291;DHT22;9271;48.590;8.866;2024-01-30T14:33:52;23.60;46.10
18291;DHT22;9271;48.590;8.866;2024-01-30T14:36:20;22.90;46.20
18291;DHT22;9271;48.590;8.866;2024-01-30T14:38:47;21.90;49.50
18291;DHT22;9271;48.590;8.866;2024-01-30T14:41:15;21.10;50.30
18291;DHT22;9271;48.590;8.866;2024-01-30T14:43:41;20.40;50.80
18291;DHT22;9271;48.590;8.866;2024-01-30T14:46:08;19.50;52.50
18291;DHT22;9271;48.590;8.866;2024-01-30T14:48:35;19.00;52.40
18291;DHT22;9271;48.590;8.866;2024-01-30T14:51:01;18.60;54.40
18291;DHT22;9271;48.590;8.866;2024-01-30T14:53:28;18.20;55.40
18291;DHT22;9271;48.590;8.866;2024-01-30T14:55:55;17.80;57.00
18291;DHT22;9271;48.590;8.866;2024-01-30T14:58:23;17.30;58.20
18291;DHT22;9271;48.590;8.866;2024-01-30T15:00:49;17.20;58.30
18291;DHT22;9271;48.590;8.866;2024-01-30T15:03:16;17.10;59.30
18291;DHT22;9271;48.590;8.866;2024-01-30T15:05:43;16.70;57.80
18291;DHT22;9271;48.590;8.866;2024-01-30T15:08:09;16.40;61.20
18291;DHT22;9271;48.590;8.866;2024-01-30T15:10:36;16.20;61.90
18291;DHT22;9271;48.590;8.866;2024-01-30T15:13:03;16.20;62.90
18291;DHT22;9271;48.590;8.866;2024-01-30T15:15:31;16.00;62.20
18291;DHT22;9271;48.590;8.866;2024-01-30T15:17:57;16.10;62.50
18291;DHT22;9271;48.590;8.866;2024-01-30T15:20:24;15.90;60.70
18291;DHT22;9271;48.590;8.866;2024-01-30T15:22:51;15.90;62.60
18291;DHT22;9271;48.590;8.866;2024-01-30T15:25:17;15.70;64.40
18291;DHT22;9271;48.590;8.866;2024-01-30T15:27:44;15.80;63.90
18291;DHT22;9271;48.590;8.866;2024-01-30T15:30:12;15.70;63.40
18291;DHT22;9271;48.590;8.866;2024-01-30T15:32:40;15.70;63.50
18291;DHT22;9271;48.590;8.866;2024-01-30T15:35:07;15.40;65.30
18291;DHT22;9271;48.590;8.866;2024-01-30T15:37:34;15.20;65.10
18291;DHT22;9271;48.590;8.866;2024-01-30T15:40:00;15.10;65.10
18291;DHT22;9271;48.590;8.866;2024-01-30T15:42:28;15.00;67.10
18291;DHT22;9271;48.590;8.866;2024-01-30T15:44:54;14.80;67.00
18291;DHT22;9271;48.590;8.866;2024-01-30T15:47:21;14.90;66.80
18291;DHT22;9271;48.590;8.866;2024-01-30T15:49:49;14.80;70.10
18291;DHT22;9271;48.590;8.866;2024-01-30T15:52:15;14.60;69.50
18291;DHT22;9271;48.590;8.866;2024-01-30T15:54:43;14.30;70.70